sensor_id;sensor_type;location;lat;lon;timestamp;pressure;altitude;pressure_sealevel;temperature;humidity
21826;BME280;11075;47.944;11.776;2024-02-23T00:02:14;93043.22;;;2.07;98.28
21826;BME280;11075;47.944;11.776;2024-02-23T00:04:41;93043.94;;;2.31;97.85
21826;BME280;11075;47.944;11.776;2024-02-23T00:07:08;93031.84;;;1.74;91.98
21826;BME280;11075;47.944;11.776;2024-02-23T00:09:35;93023.31;;;2.00;96.64
21826;BME280;11075;47.944;11.776;2024-02-23T00:12:03;93015.19;;;1.97;93.93
21826;BME280;11075;47.944;11.776;2024-02-23T00:14:30;93025.91;;;1.44;94.62
21826;BME280;11075;47.944;11.776;2024-02-23T00:16:58;93018.81;;;2.39;89.06
21826;BME280;11075;47.944;11.776;2024-02-23T00:19:25;93008.94;;;1.74;94.08
21826;BME280;11075;47.944;11.776;2024-02-23T00:21:52;93010.94;;;2.01;90.74
21826;BME280;11075;47.944;11.776;2024-02-23T00:24:19;93010.41;;;1.43;94.55
21826;BME280;11075;47.944;11.776;2024-02-23T00:26:48;93010.94;;;2.01;90.73
21826;BME280;11075;47.944;11.776;2024-02-23T00:29:17;93014.91;;;1.80;91.19
21826;BME280;11075;47.944;11.776;2024-02-23T00:31:44;93018.47;;;1.89;91.11
21826;BME280;11075;47.944;11.776;2024-02-23T00:34:14;93014.84;;;1.85;93.10
21826;BME280;11075;47.944;11.776;2024-02-23T00:36:42;93011.16;;;1.67;88.55
21826;BME280;11075;47.944;11.776;2024-02-23T00:39:11;93007.00;;;1.42;92.95
21826;BME280;11075;47.944;11.776;2024-02-23T00:41:38;93011.88;;;1.30;96.89
21826;BME280;11075;47.944;11.776;2024-02-23T00:44:05;93010.00;;;1.92;91.62
21826;BME280;11075;47.944;11.776;2024-02-23T00:46:32;93007.09;;;1.75;91.33
21826;BME280;11075;47.944;11.776;2024-02-23T00:48:59;93015.41;;;1.82;92.03
21826;BME280;11075;47.944;11.776;2024-02-23T00:51:26;93021.78;;;1.38;95.03
21826;BME280;11075;47.944;11.776;2024-02-23T00:53:53;93022.03;;;1.79;92.76
21826;BME280;11075;47.944;11.776;2024-02-23T00:56:20;93031.28;;;1.95;91.24
21826;BME280;11075;47.944;11.776;2024-02-23T00:58:55;93032.38;;;1.52;92.31
21826;BME280;11075;47.944;11.776;2024-02-23T01:01:21;93016.03;;;1.36;93.18
21826;BME280;11075;47.944;11.776;2024-02-23T01:03:48;93027.50;;;1.64;91.43
21826;BME280;11075;47.944;11.776;2024-02-23T01:06:15;93025.00;;;1.54;92.75
21826;BME280;11075;47.944;11.776;2024-02-23T01:08:43;93036.19;;;1.41;90.37
21826;BME280;11075;47.944;11.776;2024-02-23T01:11:11;93020.81;;;1.71;89.42
21826;BME280;11075;47.944;11.776;2024-02-23T01:13:38;93029.47;;;1.53;89.46
21826;BME280;11075;47.944;11.776;2024-02-23T01:16:05;93031.06;;;1.92;86.48
21826;BME280;11075;47.944;11.776;2024-02-23T01:18:32;93031.91;;;1.26;90.53
21826;BME280;11075;47.944;11.776;2024-02-23T01:20:59;93031.28;;;1.34;90.99
21826;BME280;11075;47.944;11.776;2024-02-23T01:23:26;93033.03;;;1.62;90.13
21826;BME280;11075;47.944;11.776;2024-02-23T01:25:53;93043.69;;;1.52;89.82
21826;BME280;11075;47.944;11.776;2024-02-23T01:28:20;93050.31;;;1.26;91.98
21826;BME280;11075;47.944;11.776;2024-02-23T01:30:46;93039.78;;;1.26;91.68
21826;BME280;11075;47.944;11.776;2024-02-23T01:33:13;93037.00;;;0.93;92.26
21826;BME280;11075;47.944;11.776;2024-02-23T01:35:40;93037.22;;;1.21;88.21
21826;BME280;11075;47.944;11.776;2024-02-23T01:38:07;93036.75;;;1.37;89.06
21826;BME280;11075;47.944;11.776;2024-02-23T01:40:34;93037.16;;;1.87;86.93
21826;BME280;11075;47.944;11.776;2024-02-23T01:43:03;93037.53;;;1.38;88.92
21826;BME280;11075;47.944;11.776;2024-02-23T01:45:30;93050.47;;;1.34;92.50
21826;BME280;11075;47.944;11.776;2024-02-23T01:47:58;93044.44;;;1.34;89.76
21826;BME280;11075;47.944;11.776;2024-02-23T01:50:26;93050.69;;;0.90;92.65
21826;BME280;11075;47.944;11.776;2024-02-23T01:52:55;93049.25;;;1.03;93.74
21826;BME280;11075;47.944;11.776;2024-02-23T01:55:23;93053.47;;;0.46;90.93
21826;BME280;11075;47.944;11.776;2024-02-23T01:57:50;93056.44;;;0.92;90.63
21826;BME280;11075;47.944;11.776;2024-02-23T02:00:18;93053.72;;;1.02;89.01
21826;BME280;11075;47.944;11.776;2024-02-23T02:02:52;93058.59;;;1.14;88.01
21826;BME280;11075;47.944;11.776;2024-02-23T02:05:20;93054.34;;;1.18;88.77
21826;BME280;11075;47.944;11.776;2024-02-23T02:07:47;93051.53;;;1.33;87.42
21826;BME280;11075;47.944;11.776;2024-02-23T02:10:17;93044.72;;;1.09;86.29
21826;BME280;11075;47.944;11.776;2024-02-23T02:12:44;93051.75;;;1.37;83.96
21826;BME280;11075;47.944;11.776;2024-02-23T02:15:11;93061.38;;;0.99;85.52
21826;BME280;11075;47.944;11.776;2024-02-23T02:17:37;93049.03;;;0.99;82.63
21826;BME280;11075;47.944;11.776;2024-02-23T02:20:05;93064.56;;;1.20;84.74
21826;BME280;11075;47.944;11.776;2024-02-23T02:22:33;93048.25;;;1.23;84.19
21826;BME280;11075;47.944;11.776;2024-02-23T02:25:00;93051.13;;;1.45;81.58
21826;BME280;11075;47.944;11.776;2024-02-23T02:27:27;93059.47;;;1.28;82.72
21826;BME280;11075;47.944;11.776;2024-02-23T02:29:54;93045.28;;;1.05;82.77
21826;BME280;11075;47.944;11.776;2024-02-23T02:32:21;93054.16;;;1.10;80.81
21826;BME280;11075;47.944;11.776;2024-02-23T02:34:48;93048.22;;;0.75;80.77
21826;BME280;11075;47.944;11.776;2024-02-23T02:37:15;93052.88;;;1.74;78.20
21826;BME280;11075;47.944;11.776;2024-02-23T02:39:42;93061.38;;;1.23;81.83
21826;BME280;11075;47.944;11.776;2024-02-23T02:42:09;93054.81;;;0.96;80.44
21826;BME280;11075;47.944;11.776;2024-02-23T02:44:35;93055.06;;;1.66;78.24
21826;BME280;11075;47.944;11.776;2024-02-23T02:47:02;93065.97;;;1.12;80.16
21826;BME280;11075;47.944;11.776;2024-02-23T02:49:29;93061.09;;;1.24;80.91
21826;BME280;11075;47.944;11.776;2024-02-23T02:51:56;93061.22;;;1.14;80.78
21826;BME280;11075;47.944;11.776;2024-02-23T02:54:23;93065.56;;;1.48;77.92
21826;BME280;11075;47.944;11.776;2024-02-23T02:56:50;93071.84;;;1.28;81.08
21826;BME280;11075;47.944;11.776;2024-02-23T02:59:17;93071.06;;;0.74;81.60
21826;BME280;11075;47.944;11.776;2024-02-23T03:01:45;93081.44;;;1.14;78.78
21826;BME280;11075;47.944;11.776;2024-02-23T03:04:13;93083.31;;;0.84;78.66
21826;BME280;11075;47.944;11.776;2024-02-23T03:06:40;93090.94;;;1.57;76.10
21826;BME280;11075;47.944;11.776;2024-02-23T03:09:07;93079.66;;;1.57;78.55
21826;BME280;11075;47.944;11.776;2024-02-23T03:11:34;93081.44;;;1.61;74.58
21826;BME280;11075;47.944;11.776;2024-02-23T03:14:01;93089.75;;;1.68;75.84
21826;BME280;11075;47.944;11.776;2024-02-23T03:16:28;93083.69;;;1.25;77.59
21826;BME280;11075;47.944;11.776;2024-02-23T03:18:57;93082.66;;;0.97;83.38
21826;BME280;11075;47.944;11.776;2024-02-23T03:21:24;93085.75;;;1.04;80.56
21826;BME280;11075;47.944;11.776;2024-02-23T03:23:50;93088.19;;;0.96;81.70
21826;BME280;11075;47.944;11.776;2024-02-23T03:26:17;93074.00;;;1.45;76.73
21826;BME280;11075;47.944;11.776;2024-02-23T03:28:44;93078.09;;;1.32;74.93
21826;BME280;11075;47.944;11.776;2024-02-23T03:31:11;93067.78;;;0.88;79.65
21826;BME280;11075;47.944;11.776;2024-02-23T03:33:38;93076.19;;;1.14;74.37
21826;BME280;11075;47.944;11.776;2024-02-23T03:36:05;93077.03;;;1.09;75.98
21826;BME280;11075;47.944;11.776;2024-02-23T03:38:32;93078.56;;;0.86;75.64
21826;BME280;11075;47.944;11.776;2024-02-23T03:41:01;93086.03;;;1.03;77.25
21826;BME280;11075;47.944;11.776;2024-02-23T03:43:28;93075.06;;;0.67;77.13
21826;BME280;11075;47.944;11.776;2024-02-23T03:45:59;93087.50;;;1.38;73.38
21826;BME280;11075;47.944;11.776;2024-02-23T03:48:26;93081.94;;;0.63;75.18
21826;BME280;11075;47.944;11.776;2024-02-23T03:50:53;93076.22;;;0.56;75.82
21826;BME280;11075;47.944;11.776;2024-02-23T03:53:20;93079.03;;;0.93;73.09
21826;BME280;11075;47.944;11.776;2024-02-23T03:55:48;93088.06;;;1.35;72.67
21826;BME280;11075;47.944;11.776;2024-02-23T03:58:16;93074.59;;;1.60;71.58
21826;BME280;11075;47.944;11.776;2024-02-23T04:00:43;93079.25;;;1.45;70.64
21826;BME280;11075;47.944;11.776;2024-02-23T04:03:10;93083.22;;;1.66;71.85
21826;BME280;11075;47.944;11.776;2024-02-23T04:05:37;93080.28;;;1.25;74.66
21826;BME280;11075;47.944;11.776;2024-02-23T04:08:04;93086.94;;;1.17;75.53
21826;BME280;11075;47.944;11.776;2024-02-23T04:10:32;93085.38;;;1.40;72.18
21826;BME280;11075;47.944;11.776;2024-02-23T04:13:00;93089.28;;;1.19;74.58
21826;BME280;11075;47.944;11.776;2024-02-23T04:15:27;93094.00;;;0.64;74.95
21826;BME280;11075;47.944;11.776;2024-02-23T04:17:54;93094.63;;;1.09;75.92
21826;BME280;11075;47.944;11.776;2024-02-23T04:20:21;93099.44;;;0.38;77.06
21826;BME280;11075;47.944;11.776;2024-02-23T04:22:48;93098.38;;;0.73;73.75
21826;BME280;11075;47.944;11.776;2024-02-23T04:25:15;93098.97;;;0.65;75.23
21826;BME280;11075;47.944;11.776;2024-02-23T04:27:42;93105.25;;;0.69;75.72
21826;BME280;11075;47.944;11.776;2024-02-23T04:30:11;93102.56;;;0.40;78.35
21826;BME280;11075;47.944;11.776;2024-02-23T04:32:38;93097.59;;;1.50;72.94
21826;BME280;11075;47.944;11.776;2024-02-23T04:35:05;93097.94;;;1.19;74.48
21826;BME280;11075;47.944;11.776;2024-02-23T04:37:32;93103.25;;;1.14;76.69
21826;BME280;11075;47.944;11.776;2024-02-23T04:40:03;93109.47;;;1.47;74.08
21826;BME280;11075;47.944;11.776;2024-02-23T04:42:32;93112.88;;;1.48;75.01
21826;BME280;11075;47.944;11.776;2024-02-23T04:44:59;93104.59;;;1.12;75.51
21826;BME280;11075;47.944;11.776;2024-02-23T04:47:26;93105.38;;;1.12;76.10
21826;BME280;11075;47.944;11.776;2024-02-23T04:49:53;93106.28;;;1.50;74.03
21826;BME280;11075;47.944;11.776;2024-02-23T04:52:20;93104.00;;;0.91;78.78
21826;BME280;11075;47.944;11.776;2024-02-23T04:54:47;93114.72;;;1.47;75.16
21826;BME280;11075;47.944;11.776;2024-02-23T04:57:13;93113.16;;;0.93;77.77
21826;BME280;11075;47.944;11.776;2024-02-23T04:59:40;93112.19;;;0.55;79.60
21826;BME280;11075;47.944;11.776;2024-02-23T05:02:07;93107.78;;;0.80;77.76
21826;BME280;11075;47.944;11.776;2024-02-23T05:04:34;93111.56;;;0.97;77.84
21826;BME280;11075;47.944;11.776;2024-02-23T05:07:01;93109.75;;;1.22;77.29
21826;BME280;11075;47.944;11.776;2024-02-23T05:09:28;93122.88;;;0.93;75.22
21826;BME280;11075;47.944;11.776;2024-02-23T05:11:55;93126.44;;;0.78;77.70
21826;BME280;11075;47.944;11.776;2024-02-23T05:14:22;93123.81;;;1.07;77.17
21826;BME280;11075;47.944;11.776;2024-02-23T05:16:49;93132.06;;;0.95;77.97
21826;BME280;11075;47.944;11.776;2024-02-23T05:19:16;93137.72;;;1.07;76.94
21826;BME280;11075;47.944;11.776;2024-02-23T05:21:43;93137.25;;;1.29;74.77
21826;BME280;11075;47.944;11.776;2024-02-23T05:24:11;93152.56;;;0.59;78.66
21826;BME280;11075;47.944;11.776;2024-02-23T05:26:37;93149.31;;;0.38;78.29
21826;BME280;11075;47.944;11.776;2024-02-23T05:29:05;93140.63;;;0.77;76.82
21826;BME280;11075;47.944;11.776;2024-02-23T05:31:46;93152.63;;;0.88;75.88
21826;BME280;11075;47.944;11.776;2024-02-23T05:34:14;93144.97;;;0.92;77.08
21826;BME280;11075;47.944;11.776;2024-02-23T05:36:42;93143.75;;;0.45;77.27
21826;BME280;11075;47.944;11.776;2024-02-23T05:39:09;93161.81;;;0.52;77.74
21826;BME280;11075;47.944;11.776;2024-02-23T05:41:36;93160.09;;;1.05;75.35
21826;BME280;11075;47.944;11.776;2024-02-23T05:44:04;93160.25;;;0.01;82.07
21826;BME280;11075;47.944;11.776;2024-02-23T05:46:33;93161.75;;;0.13;79.93
21826;BME280;11075;47.944;11.776;2024-02-23T05:49:00;93165.84;;;1.07;77.37
21826;BME280;11075;47.944;11.776;2024-02-23T05:51:28;93174.84;;;1.30;73.13
21826;BME280;11075;47.944;11.776;2024-02-23T05:53:58;93166.19;;;0.17;79.46
21826;BME280;11075;47.944;11.776;2024-02-23T05:56:25;93152.16;;;1.10;71.73
21826;BME280;11075;47.944;11.776;2024-02-23T05:58:52;93151.31;;;1.15;71.80
21826;BME280;11075;47.944;11.776;2024-02-23T06:01:19;93156.63;;;0.41;71.79
21826;BME280;11075;47.944;11.776;2024-02-23T06:03:46;93149.13;;;0.20;72.29
21826;BME280;11075;47.944;11.776;2024-02-23T06:06:13;93150.97;;;0.97;70.26
21826;BME280;11075;47.944;11.776;2024-02-23T06:08:41;93151.00;;;1.21;69.58
21826;BME280;11075;47.944;11.776;2024-02-23T06:11:09;93151.78;;;1.22;68.30
21826;BME280;11075;47.944;11.776;2024-02-23T06:13:36;93156.59;;;1.15;68.85
21826;BME280;11075;47.944;11.776;2024-02-23T06:16:04;93158.50;;;1.33;69.47
21826;BME280;11075;47.944;11.776;2024-02-23T06:18:32;93158.94;;;0.48;74.36
21826;BME280;11075;47.944;11.776;2024-02-23T06:20:58;93160.38;;;1.03;71.17
21826;BME280;11075;47.944;11.776;2024-02-23T06:23:25;93173.84;;;0.58;75.45
21826;BME280;11075;47.944;11.776;2024-02-23T06:25:52;93180.28;;;0.31;75.61
21826;BME280;11075;47.944;11.776;2024-02-23T06:28:19;93178.44;;;0.37;73.86
21826;BME280;11075;47.944;11.776;2024-02-23T06:30:46;93186.81;;;0.44;76.48
21826;BME280;11075;47.944;11.776;2024-02-23T06:33:13;93190.88;;;0.65;72.60
21826;BME280;11075;47.944;11.776;2024-02-23T06:35:40;93193.28;;;0.57;73.35
21826;BME280;11075;47.944;11.776;2024-02-23T06:38:07;93181.31;;;0.80;70.28
21826;BME280;11075;47.944;11.776;2024-02-23T06:40:34;93189.97;;;0.41;72.43
21826;BME280;11075;47.944;11.776;2024-02-23T06:43:17;93190.78;;;1.10;67.61
21826;BME280;11075;47.944;11.776;2024-02-23T06:45:48;93186.00;;;1.17;67.85
21826;BME280;11075;47.944;11.776;2024-02-23T06:48:15;93185.03;;;1.07;68.24
21826;BME280;11075;47.944;11.776;2024-02-23T06:50:42;93186.69;;;0.98;75.87
21826;BME280;11075;47.944;11.776;2024-02-23T06:53:09;93188.44;;;1.08;71.85
21826;BME280;11075;47.944;11.776;2024-02-23T06:55:36;93190.63;;;0.96;71.79
21826;BME280;11075;47.944;11.776;2024-02-23T06:58:03;93183.78;;;1.29;69.57
21826;BME280;11075;47.944;11.776;2024-02-23T07:00:34;93186.88;;;0.73;70.16
21826;BME280;11075;47.944;11.776;2024-02-23T07:03:01;93195.53;;;0.34;72.34
21826;BME280;11075;47.944;11.776;2024-02-23T07:05:30;93198.34;;;0.82;72.13
21826;BME280;11075;47.944;11.776;2024-02-23T07:07:57;93192.63;;;0.36;73.38
21826;BME280;11075;47.944;11.776;2024-02-23T07:10:24;93195.91;;;0.57;71.80
21826;BME280;11075;47.944;11.776;2024-02-23T07:12:52;93192.06;;;0.44;73.03
21826;BME280;11075;47.944;11.776;2024-02-23T07:15:23;93200.56;;;0.65;73.67
21826;BME280;11075;47.944;11.776;2024-02-23T07:17:51;93197.50;;;0.92;71.03
21826;BME280;11075;47.944;11.776;2024-02-23T07:20:18;93200.31;;;0.17;74.88
21826;BME280;11075;47.944;11.776;2024-02-23T07:22:46;93225.59;;;0.91;72.11
21826;BME280;11075;47.944;11.776;2024-02-23T07:25:19;93217.66;;;0.62;70.54
21826;BME280;11075;47.944;11.776;2024-02-23T07:27:49;93215.81;;;0.63;72.00
21826;BME280;11075;47.944;11.776;2024-02-23T07:30:16;93215.63;;;0.54;73.71
21826;BME280;11075;47.944;11.776;2024-02-23T07:32:43;93221.03;;;0.19;72.49
21826;BME280;11075;47.944;11.776;2024-02-23T07:35:14;93220.97;;;0.29;75.35
21826;BME280;11075;47.944;11.776;2024-02-23T07:37:41;93227.75;;;-0.30;78.08
21826;BME280;11075;47.944;11.776;2024-02-23T07:40:08;93224.06;;;-0.18;77.33
21826;BME280;11075;47.944;11.776;2024-02-23T07:42:35;93218.56;;;0.43;74.86
21826;BME280;11075;47.944;11.776;2024-02-23T07:45:06;93207.72;;;0.59;72.65
21826;BME280;11075;47.944;11.776;2024-02-23T07:47:33;93217.50;;;0.44;72.57
21826;BME280;11075;47.944;11.776;2024-02-23T07:50:00;93212.00;;;-0.25;75.46
21826;BME280;11075;47.944;11.776;2024-02-23T07:52:27;93220.84;;;0.59;72.28
21826;BME280;11075;47.944;11.776;2024-02-23T07:54:54;93222.03;;;0.77;71.15
21826;BME280;11075;47.944;11.776;2024-02-23T07:57:21;93214.16;;;-0.42;75.11
21826;BME280;11075;47.944;11.776;2024-02-23T07:59:48;93214.47;;;1.04;70.70
21826;BME280;11075;47.944;11.776;2024-02-23T08:02:15;93211.72;;;1.20;68.40
21826;BME280;11075;47.944;11.776;2024-02-23T08:04:42;93216.03;;;0.17;73.42
21826;BME280;11075;47.944;11.776;2024-02-23T08:07:10;93208.91;;;0.77;69.61
21826;BME280;11075;47.944;11.776;2024-02-23T08:09:37;93208.19;;;0.12;69.71
21826;BME280;11075;47.944;11.776;2024-02-23T08:12:04;93209.16;;;0.31;70.61
21826;BME280;11075;47.944;11.776;2024-02-23T08:14:31;93200.56;;;0.16;69.83
21826;BME280;11075;47.944;11.776;2024-02-23T08:16:59;93200.56;;;0.65;68.25
21826;BME280;11075;47.944;11.776;2024-02-23T08:19:26;93215.13;;;-0.12;67.99
21826;BME280;11075;47.944;11.776;2024-02-23T08:21:53;93208.56;;;0.50;65.86
21826;BME280;11075;47.944;11.776;2024-02-23T08:24:20;93206.97;;;0.49;64.15
21826;BME280;11075;47.944;11.776;2024-02-23T08:26:47;93214.59;;;-0.14;65.09
21826;BME280;11075;47.944;11.776;2024-02-23T08:29:14;93208.59;;;0.45;64.43
21826;BME280;11075;47.944;11.776;2024-02-23T08:31:41;93202.34;;;0.35;64.95
21826;BME280;11075;47.944;11.776;2024-02-23T08:34:08;93200.13;;;0.53;61.89
21826;BME280;11075;47.944;11.776;2024-02-23T08:36:35;93193.16;;;0.33;63.53
21826;BME280;11075;47.944;11.776;2024-02-23T08:39:02;93193.41;;;0.36;62.31
21826;BME280;11075;47.944;11.776;2024-02-23T08:41:30;93200.91;;;0.92;59.56
21826;BME280;11075;47.944;11.776;2024-02-23T08:43:57;93207.22;;;-0.02;60.27
21826;BME280;11075;47.944;11.776;2024-02-23T08:46:24;93192.47;;;0.07;61.66
21826;BME280;11075;47.944;11.776;2024-02-23T08:48:51;93194.69;;;0.44;60.27
21826;BME280;11075;47.944;11.776;2024-02-23T08:51:18;93211.56;;;-0.57;63.83
21826;BME280;11075;47.944;11.776;2024-02-23T08:53:45;93209.84;;;-0.07;63.90
21826;BME280;11075;47.944;11.776;2024-02-23T08:56:12;93219.09;;;-0.30;62.07
21826;BME280;11075;47.944;11.776;2024-02-23T08:58:39;93221.97;;;-0.22;63.72
21826;BME280;11075;47.944;11.776;2024-02-23T09:01:06;93225.69;;;-0.38;63.93
21826;BME280;11075;47.944;11.776;2024-02-23T09:03:33;93227.53;;;0.31;61.88
21826;BME280;11075;47.944;11.776;2024-02-23T09:05:59;93223.09;;;-0.58;65.82
21826;BME280;11075;47.944;11.776;2024-02-23T09:08:27;93230.22;;;0.11;65.75
21826;BME280;11075;47.944;11.776;2024-02-23T09:10:54;93231.31;;;0.64;62.81
21826;BME280;11075;47.944;11.776;2024-02-23T09:13:21;93240.41;;;-0.62;66.91
21826;BME280;11075;47.944;11.776;2024-02-23T09:15:47;93246.19;;;0.79;62.76
21826;BME280;11075;47.944;11.776;2024-02-23T09:18:14;93252.56;;;-0.02;66.83
21826;BME280;11075;47.944;11.776;2024-02-23T09:20:41;93260.13;;;0.15;66.47
21826;BME280;11075;47.944;11.776;2024-02-23T09:23:08;93258.16;;;-0.34;67.69
21826;BME280;11075;47.944;11.776;2024-02-23T09:25:39;93267.25;;;-0.01;67.55
21826;BME280;11075;47.944;11.776;2024-02-23T09:28:08;93264.00;;;0.38;68.53
21826;BME280;11075;47.944;11.776;2024-02-23T09:30:37;93283.88;;;-0.41;69.32
21826;BME280;11075;47.944;11.776;2024-02-23T09:33:05;93287.81;;;-0.43;73.04
21826;BME280;11075;47.944;11.776;2024-02-23T09:35:32;93285.19;;;-0.53;72.72
21826;BME280;11075;47.944;11.776;2024-02-23T09:37:59;93290.72;;;-0.91;75.16
21826;BME280;11075;47.944;11.776;2024-02-23T09:40:26;93285.56;;;0.20;70.75
21826;BME280;11075;47.944;11.776;2024-02-23T09:42:56;93282.84;;;-0.55;75.21
21826;BME280;11075;47.944;11.776;2024-02-23T09:45:26;93294.88;;;-0.29;73.98
21826;BME280;11075;47.944;11.776;2024-02-23T09:47:54;93292.34;;;0.36;71.83
21826;BME280;11075;47.944;11.776;2024-02-23T09:50:23;93283.91;;;-0.97;78.59
21826;BME280;11075;47.944;11.776;2024-02-23T09:52:51;93283.63;;;-0.39;76.98
21826;BME280;11075;47.944;11.776;2024-02-23T09:55:18;93283.84;;;0.59;71.78
21826;BME280;11075;47.944;11.776;2024-02-23T09:57:48;93297.25;;;-0.52;78.61
21826;BME280;11075;47.944;11.776;2024-02-23T10:00:18;93293.75;;;0.03;74.94
21826;BME280;11075;47.944;11.776;2024-02-23T10:02:45;93301.34;;;-1.43;81.20
21826;BME280;11075;47.944;11.776;2024-02-23T10:05:13;93305.38;;;-0.44;75.61
21826;BME280;11075;47.944;11.776;2024-02-23T10:07:40;93304.84;;;-0.46;76.42
21826;BME280;11075;47.944;11.776;2024-02-23T10:10:08;93302.75;;;-1.00;78.31
21826;BME280;11075;47.944;11.776;2024-02-23T10:12:35;93299.34;;;-0.75;79.46
21826;BME280;11075;47.944;11.776;2024-02-23T10:15:03;93302.22;;;-1.02;79.87
21826;BME280;11075;47.944;11.776;2024-02-23T10:17:31;93310.16;;;-1.74;81.59
21826;BME280;11075;47.944;11.776;2024-02-23T10:20:02;93301.44;;;-1.07;79.13
21826;BME280;11075;47.944;11.776;2024-02-23T10:22:31;93302.53;;;-1.81;82.63
21826;BME280;11075;47.944;11.776;2024-02-23T10:24:59;93302.47;;;-0.22;73.93
21826;BME280;11075;47.944;11.776;2024-02-23T10:27:26;93297.25;;;-0.68;76.19
21826;BME280;11075;47.944;11.776;2024-02-23T10:29:54;93300.63;;;-1.18;79.36
21826;BME280;11075;47.944;11.776;2024-02-23T10:32:23;93307.97;;;-1.05;80.90
21826;BME280;11075;47.944;11.776;2024-02-23T10:34:50;93298.53;;;-1.16;78.42
21826;BME280;11075;47.944;11.776;2024-02-23T10:37:20;93298.03;;;-0.82;76.68
21826;BME280;11075;47.944;11.776;2024-02-23T10:39:54;93303.22;;;-0.11;75.95
21826;BME280;11075;47.944;11.776;2024-02-23T10:42:24;93303.28;;;-0.67;77.30
21826;BME280;11075;47.944;11.776;2024-02-23T10:44:58;93310.88;;;-1.01;79.47
21826;BME280;11075;47.944;11.776;2024-02-23T10:47:28;93300.63;;;-0.32;74.33
21826;BME280;11075;47.944;11.776;2024-02-23T10:50:00;93300.13;;;-0.54;77.84
21826;BME280;11075;47.944;11.776;2024-02-23T10:52:28;93293.34;;;-0.70;77.01
21826;BME280;11075;47.944;11.776;2024-02-23T10:54:56;93299.31;;;-0.19;75.20
21826;BME280;11075;47.944;11.776;2024-02-23T10:57:24;93290.69;;;-0.50;76.55
21826;BME280;11075;47.944;11.776;2024-02-23T10:59:51;93298.81;;;-0.41;76.88
21826;BME280;11075;47.944;11.776;2024-02-23T11:02:19;93304.84;;;-0.97;79.83
21826;BME280;11075;47.944;11.776;2024-02-23T11:04:49;93303.81;;;-1.89;85.10
21826;BME280;11075;47.944;11.776;2024-02-23T11:07:20;93295.69;;;-0.94;78.72
21826;BME280;11075;47.944;11.776;2024-02-23T11:09:55;93287.81;;;-0.99;79.97
21826;BME280;11075;47.944;11.776;2024-02-23T11:12:25;93289.66;;;-1.05;80.65
21826;BME280;11075;47.944;11.776;2024-02-23T11:14:57;93282.84;;;-0.45;76.66
21826;BME280;11075;47.944;11.776;2024-02-23T11:17:32;93277.63;;;-0.85;79.72
21826;BME280;11075;47.944;11.776;2024-02-23T11:20:03;93279.41;;;-0.35;74.97
21826;BME280;11075;47.944;11.776;2024-02-23T11:22:34;93273.66;;;-0.58;73.65
21826;BME280;11075;47.944;11.776;2024-02-23T11:25:06;93271.06;;;-1.08;76.23
21826;BME280;11075;47.944;11.776;2024-02-23T11:27:38;93280.75;;;-0.58;75.20
21826;BME280;11075;47.944;11.776;2024-02-23T11:30:08;93271.63;;;0.29;71.38
21826;BME280;11075;47.944;11.776;2024-02-23T11:35:06;93276.53;;;-0.44;69.57
21826;BME280;11075;47.944;11.776;2024-02-23T11:37:45;93266.59;;;-0.57;69.45
21826;BME280;11075;47.944;11.776;2024-02-23T11:40:13;93272.13;;;-0.89;69.43
21826;BME280;11075;47.944;11.776;2024-02-23T11:42:43;93266.34;;;-0.96;70.40
21826;BME280;11075;47.944;11.776;2024-02-23T11:45:10;93265.03;;;-0.89;68.84
21826;BME280;11075;47.944;11.776;2024-02-23T11:47:38;93273.38;;;-1.32;70.37
21826;BME280;11075;47.944;11.776;2024-02-23T11:50:09;93267.66;;;-0.63;68.66
21826;BME280;11075;47.944;11.776;2024-02-23T11:52:37;93271.59;;;-0.96;68.42
21826;BME280;11075;47.944;11.776;2024-02-23T11:55:06;93285.19;;;-0.53;66.07
21826;BME280;11075;47.944;11.776;2024-02-23T11:57:35;93284.69;;;-0.61;68.27
21826;BME280;11075;47.944;11.776;2024-02-23T12:00:13;93284.91;;;-1.18;68.72
21826;BME280;11075;47.944;11.776;2024-02-23T12:02:40;93275.41;;;-0.02;65.20
21826;BME280;11075;47.944;11.776;2024-02-23T12:05:07;93281.53;;;-0.78;66.72
21826;BME280;11075;47.944;11.776;2024-02-23T12:07:35;93279.72;;;-0.88;68.81
21826;BME280;11075;47.944;11.776;2024-02-23T12:10:02;93279.19;;;-0.95;68.21
21826;BME280;11075;47.944;11.776;2024-02-23T12:12:30;93282.81;;;-1.16;69.63
21826;BME280;11075;47.944;11.776;2024-02-23T12:14:57;93284.34;;;-0.18;64.76
21826;BME280;11075;47.944;11.776;2024-02-23T12:17:25;93290.69;;;-1.01;67.77
21826;BME280;11075;47.944;11.776;2024-02-23T12:20:02;93301.97;;;-0.70;65.38
21826;BME280;11075;47.944;11.776;2024-02-23T12:22:29;93296.41;;;-0.12;62.39
21826;BME280;11075;47.944;11.776;2024-02-23T12:24:59;93266.09;;;-1.00;66.75
21826;BME280;11075;47.944;11.776;2024-02-23T12:27:26;93266.84;;;-1.30;66.99
21826;BME280;11075;47.944;11.776;2024-02-23T12:29:55;93271.31;;;-0.69;65.90
21826;BME280;11075;47.944;11.776;2024-02-23T12:32:22;93262.38;;;-0.43;64.76
21826;BME280;11075;47.944;11.776;2024-02-23T12:34:49;93250.34;;;-0.49;64.26
21826;BME280;11075;47.944;11.776;2024-02-23T12:37:17;93241.44;;;-0.48;64.83
21826;BME280;11075;47.944;11.776;2024-02-23T12:39:44;93260.69;;;0.02;64.24
21826;BME280;11075;47.944;11.776;2024-02-23T12:42:11;93260.31;;;-1.22;65.72
21826;BME280;11075;47.944;11.776;2024-02-23T12:44:38;93255.78;;;-0.15;64.17
21826;BME280;11075;47.944;11.776;2024-02-23T12:47:05;93264.00;;;-0.77;64.05
21826;BME280;11075;47.944;11.776;2024-02-23T12:49:32;93260.81;;;-0.54;63.85
21826;BME280;11075;47.944;11.776;2024-02-23T12:51:59;93251.09;;;0.47;62.28
21826;BME280;11075;47.944;11.776;2024-02-23T12:54:26;93233.28;;;-0.36;65.26
21826;BME280;11075;47.944;11.776;2024-02-23T12:56:53;93232.00;;;-0.54;63.92
21826;BME280;11075;47.944;11.776;2024-02-23T12:59:20;93224.44;;;-0.81;63.48
21826;BME280;11075;47.944;11.776;2024-02-23T13:01:47;93201.31;;;-0.48;63.55
21826;BME280;11075;47.944;11.776;2024-02-23T13:04:17;93203.38;;;0.29;60.00